Time;durP1;ratioP1;P1;durP2;ratioP2;P2;SDS_P1;SDS_P2;PMS_P1;PMS_P2;Temp;Humidity;BMP_temperature;BMP_pressure;BME280_temperature;BME280_humidity;BME280_pressure;Samples;Min_cycle;Max_cycle;Signal;HPM_P1;HPM_P2
2021/09/15 00:01:24;;;;;;;20.48;11.65;;;21.10;99.90;;;;;;4997634;28;20116;-80
2021/09/15 00:03:50;;;;;;;21.70;12.43;;;21.30;99.90;;;;;;5015324;28;20038;-80
2021/09/15 00:06:15;;;;;;;21.42;12.43;;;21.20;99.90;;;;;;5014925;28;20077;-80
2021/09/15 00:08:41;;;;;;;17.85;12.00;;;21.20;99.90;;;;;;5015162;28;20117;-80
2021/09/15 00:11:07;;;;;;;22.00;12.13;;;21.00;99.90;;;;;;4997437;28;20455;-80
2021/09/15 00:13:33;;;;;;;19.13;12.25;;;21.20;99.90;;;;;;5015000;28;20022;-80
2021/09/15 00:15:58;;;;;;;24.35;11.65;;;21.10;99.90;;;;;;5015095;28;20030;-80
2021/09/15 00:18:24;;;;;;;18.17;11.70;;;20.90;99.90;;;;;;5014884;28;20386;-80
2021/09/15 00:20:50;;;;;;;21.10;12.32;;;21.20;99.90;;;;;;5014827;28;20017;-80
2021/09/15 00:23:16;;;;;;;18.40;11.10;;;21.00;99.90;;;;;;5014774;28;20107;-80
2021/09/15 00:25:42;;;;;;;21.02;12.48;;;21.10;99.90;;;;;;4997088;28;20486;-80
2021/09/15 00:28:07;;;;;;;19.27;13.80;;;21.30;99.90;;;;;;5014824;28;20371;-80
2021/09/15 00:30:33;;;;;;;20.85;12.18;;;21.00;99.90;;;;;;5014746;28;20026;-80
2021/09/15 00:32:59;;;;;;;19.50;13.40;;;21.00;99.90;;;;;;5014646;28;20026;-80
2021/09/15 00:35:24;;;;;;;25.45;15.07;;;20.90;99.90;;;;;;4996947;28;20490;-80
2021/09/15 00:37:50;;;;;;;20.70;12.93;;;20.80;99.90;;;;;;5014886;28;20049;-80
2021/09/15 00:40:16;;;;;;;24.00;14.23;;;21.00;99.90;;;;;;5014507;28;20026;-79
2021/09/15 00:42:42;;;;;;;21.92;14.10;;;21.20;99.90;;;;;;4996811;28;20034;-80
2021/09/15 00:45:08;;;;;;;20.52;12.95;;;20.80;99.90;;;;;;5014454;28;20018;-80
2021/09/15 00:47:33;;;;;;;19.80;13.82;;;20.90;99.90;;;;;;5014387;28;20486;-80
2021/09/15 00:49:59;;;;;;;20.02;12.32;;;20.90;99.90;;;;;;5014254;28;20022;-80
2021/09/15 00:52:25;;;;;;;20.65;13.35;;;21.10;99.90;;;;;;5013969;28;20470;-80
2021/09/15 00:54:52;;;;;;;22.35;13.30;;;21.20;99.90;;;;;;5014343;28;20101;-80
2021/09/15 00:57:18;;;;;;;23.98;15.40;;;21.30;99.90;;;;;;5014203;28;20030;-80
2021/09/15 00:59:44;;;;;;;22.58;12.50;;;21.20;99.90;;;;;;4996542;28;20494;-79
2021/09/15 01:02:10;;;;;;;22.40;13.65;;;21.10;99.90;;;;;;4996540;28;20029;-80
2021/09/15 01:04:35;;;;;;;23.30;13.38;;;21.20;99.90;;;;;;4996395;28;20030;-80
2021/09/15 01:07:01;;;;;;;21.15;12.80;;;21.30;99.90;;;;;;5013816;28;20050;-80
2021/09/15 01:09:30;;;;;;;22.63;14.25;;;21.00;99.90;;;;;;5013943;28;20072;-80
2021/09/15 01:11:57;;;;;;;24.85;13.23;;;20.90;99.90;;;;;;5014061;28;20507;-79
2021/09/15 01:14:23;;;;;;;23.55;12.90;;;21.00;99.90;;;;;;4996316;28;20026;-79
2021/09/15 01:16:52;;;;;;;19.55;11.18;;;21.10;99.90;;;;;;5014300;28;20057;-80
2021/09/15 01:19:18;;;;;;;23.33;12.50;;;21.10;99.90;;;;;;5013847;28;20022;-80
2021/09/15 01:21:45;;;;;;;21.63;11.93;;;21.10;99.90;;;;;;5013854;28;20455;-80
2021/09/15 01:24:11;;;;;;;24.33;13.60;;;21.00;99.90;;;;;;5013816;28;20034;-80
2021/09/15 01:26:37;;;;;;;16.13;9.98;;;21.10;99.90;;;;;;5014145;28;20040;-80
2021/09/15 01:29:04;;;;;;;16.33;9.45;;;20.90;99.90;;;;;;4995947;28;20057;-80
2021/09/15 01:31:30;;;;;;;17.33;8.38;;;21.00;99.90;;;;;;5013650;28;20525;-80
2021/09/15 01:33:55;;;;;;;15.63;8.63;;;21.10;99.90;;;;;;4996047;28;20023;-80
2021/09/15 01:36:21;;;;;;;15.77;9.18;;;21.30;99.90;;;;;;4996269;28;20030;-80
2021/09/15 01:38:47;;;;;;;17.88;8.57;;;21.00;99.90;;;;;;4996209;28;20506;-80
2021/09/15 01:41:13;;;;;;;14.50;7.53;;;21.10;99.90;;;;;;5013566;28;20026;-80
2021/09/15 01:43:48;;;;;;;14.75;7.35;;;21.00;99.90;;;;;;4995918;28;20025;-80
2021/09/15 01:46:14;;;;;;;15.07;6.90;;;20.90;99.90;;;;;;5013589;28;20030;-80
2021/09/15 01:48:39;;;;;;;13.80;6.72;;;20.90;99.90;;;;;;5013705;28;20030;-79
2021/09/15 01:51:05;;;;;;;12.82;7.20;;;20.80;99.90;;;;;;5013476;28;20030;-80
2021/09/15 01:53:31;;;;;;;10.00;5.82;;;20.80;99.90;;;;;;5013488;28;20367;-80
2021/09/15 01:55:56;;;;;;;10.55;6.53;;;20.80;99.90;;;;;;5013387;28;20030;-80
2021/09/15 01:58:22;;;;;;;13.02;7.13;;;20.80;99.90;;;;;;5013340;28;20475;-80
2021/09/15 02:00:48;;;;;;;13.43;7.30;;;20.70;99.90;;;;;;5013335;28;20034;-79
2021/09/15 02:03:13;;;;;;;12.77;6.93;;;20.60;99.90;;;;;;5013478;28;20029;-80
2021/09/15 02:05:39;;;;;;;12.20;6.40;;;20.70;99.90;;;;;;5015798;28;20080;-80
2021/09/15 02:08:05;;;;;;;12.15;5.50;;;20.80;99.90;;;;;;5017135;28;20053;-80
2021/09/15 02:10:31;;;;;;;11.48;5.95;;;20.90;99.90;;;;;;5017246;28;20473;-80
2021/09/15 02:12:56;;;;;;;9.55;4.72;;;20.80;99.90;;;;;;5017286;28;20029;-80
2021/09/15 02:15:22;;;;;;;8.90;4.60;;;20.70;99.90;;;;;;5017367;28;20092;-80
2021/09/15 02:17:48;;;;;;;10.75;5.32;;;20.60;99.90;;;;;;5017299;28;20021;-80
2021/09/15 02:20:14;;;;;;;10.40;5.63;;;20.60;99.90;;;;;;5017077;28;20064;-80
2021/09/15 02:22:39;;;;;;;11.23;6.22;;;20.40;99.90;;;;;;4999414;28;20021;-80
2021/09/15 02:25:07;;;;;;;12.57;6.55;;;20.40;99.90;;;;;;5016938;28;20056;-80
2021/09/15 02:27:33;;;;;;;13.25;6.50;;;20.50;99.90;;;;;;4999368;28;20033;-80
2021/09/15 02:29:59;;;;;;;12.52;6.88;;;20.40;99.90;;;;;;5016996;28;20029;-80
2021/09/15 02:32:25;;;;;;;12.95;7.00;;;20.60;99.90;;;;;;4999270;28;20486;-80
2021/09/15 02:34:50;;;;;;;12.48;7.47;;;20.70;99.90;;;;;;5017320;28;20033;-80
2021/09/15 02:37:17;;;;;;;15.85;8.40;;;20.70;99.90;;;;;;4999119;28;20033;-80
2021/09/15 02:39:42;;;;;;;13.20;8.45;;;20.70;99.90;;;;;;5016840;28;20548;-80
2021/09/15 02:42:08;;;;;;;13.02;8.90;;;20.60;99.90;;;;;;4998981;28;20034;-80
2021/09/15 02:44:34;;;;;;;15.18;9.80;;;20.60;99.90;;;;;;5016679;28;20475;-80
2021/09/15 02:47:00;;;;;;;16.13;11.20;;;20.60;99.90;;;;;;5016636;28;20034;-80
2021/09/15 02:49:28;;;;;;;20.15;12.00;;;20.70;99.90;;;;;;5016493;28;20116;-80
2021/09/15 02:51:54;;;;;;;18.35;11.20;;;20.70;99.90;;;;;;4998955;28;20072;-79
2021/09/15 02:54:20;;;;;;;15.98;11.68;;;20.60;99.90;;;;;;5016512;28;20109;-80
2021/09/15 02:56:46;;;;;;;18.80;11.90;;;20.50;99.90;;;;;;4998871;28;20046;-80
2021/09/15 02:59:12;;;;;;;15.23;10.50;;;20.40;99.90;;;;;;5016628;28;20065;-80
2021/09/15 03:01:38;;;;;;;15.70;10.82;;;20.40;99.90;;;;;;5016403;28;20061;-79
2021/09/15 03:04:03;;;;;;;15.13;9.88;;;20.40;99.90;;;;;;4998690;28;20030;-80
2021/09/15 03:06:30;;;;;;;12.85;8.68;;;20.30;99.90;;;;;;5016078;28;20100;-80
2021/09/15 03:08:55;;;;;;;12.70;7.85;;;20.30;99.90;;;;;;5016135;28;20041;-80
2021/09/15 03:11:21;;;;;;;13.15;8.35;;;20.60;99.90;;;;;;5016150;28;20026;-80
2021/09/15 03:13:47;;;;;;;10.73;7.20;;;20.60;99.90;;;;;;5016151;28;20026;-80
2021/09/15 03:16:14;;;;;;;14.55;8.20;;;20.50;99.90;;;;;;4998258;28;20394;-80
2021/09/15 03:18:40;;;;;;;13.40;9.35;;;20.40;99.90;;;;;;4998463;28;20116;-80
2021/09/15 03:21:06;;;;;;;14.05;10.05;;;20.50;99.90;;;;;;5015970;28;20455;-80
2021/09/15 03:23:31;;;;;;;15.52;10.27;;;20.40;99.90;;;;;;4998412;28;20025;-80
2021/09/15 03:25:57;;;;;;;15.77;10.63;;;20.40;99.90;;;;;;5015869;28;20054;-80
2021/09/15 03:28:23;;;;;;;14.48;10.73;;;20.30;99.90;;;;;;5015976;28;20046;-80
2021/09/15 03:30:50;;;;;;;18.17;11.95;;;20.40;99.90;;;;;;5015701;28;20029;-80
2021/09/15 03:33:15;;;;;;;17.10;11.50;;;20.30;99.90;;;;;;5015918;28;20394;-79
2021/09/15 03:35:41;;;;;;;22.48;15.95;;;20.30;99.90;;;;;;5015726;28;20034;-80
2021/09/15 03:38:07;;;;;;;20.58;14.85;;;20.20;99.90;;;;;;5015712;28;20500;-80
2021/09/15 03:40:33;;;;;;;19.38;14.13;;;20.20;99.90;;;;;;5015614;28;20597;-80
2021/09/15 03:42:58;;;;;;;22.23;15.70;;;20.10;99.90;;;;;;4998015;28;20553;-80
2021/09/15 03:45:24;;;;;;;23.60;15.57;;;20.20;99.90;;;;;;5015547;28;20022;-80
2021/09/15 03:47:50;;;;;;;26.52;17.27;;;20.10;99.90;;;;;;5015471;28;20394;-80
2021/09/15 03:50:15;;;;;;;27.63;19.08;;;20.20;99.90;;;;;;5015422;28;20077;-80
2021/09/15 03:52:41;;;;;;;29.48;19.70;;;20.20;99.90;;;;;;4997772;28;20053;-80
2021/09/15 03:55:08;;;;;;;28.13;19.98;;;20.10;99.90;;;;;;5015325;28;20022;-80
2021/09/15 03:57:33;;;;;;;28.58;20.55;;;20.20;99.90;;;;;;5015296;28;20033;-80
2021/09/15 04:00:00;;;;;;;25.17;17.13;;;20.10;99.90;;;;;;5015318;28;20029;-80
2021/09/15 04:02:26;;;;;;;32.67;21.38;;;20.10;99.90;;;;;;5015351;28;20026;-79
2021/09/15 04:04:51;;;;;;;29.02;19.10;;;20.20;99.90;;;;;;5015221;28;20375;-80
2021/09/15 04:07:18;;;;;;;28.83;20.75;;;20.30;99.90;;;;;;5015076;28;20449;-79
2021/09/15 04:09:44;;;;;;;36.65;24.27;;;20.40;99.90;;;;;;5015456;28;20430;-80
2021/09/15 04:12:09;;;;;;;32.97;23.15;;;20.20;99.90;;;;;;5015081;28;20030;-79
2021/09/15 04:14:36;;;;;;;37.05;23.95;;;20.10;99.90;;;;;;5015032;28;20037;-80
2021/09/15 04:17:02;;;;;;;32.53;22.60;;;20.00;99.90;;;;;;5015159;28;20018;-79
2021/09/15 04:19:28;;;;;;;33.80;22.75;;;20.10;99.90;;;;;;5014999;28;20026;-80
2021/09/15 04:21:53;;;;;;;28.65;21.27;;;20.10;99.90;;;;;;5014858;28;20510;-80
2021/09/15 04:32:25;;;;;;;43.90;30.40;;;20.00;99.90;;;;;;5014417;28;20044;-80
2021/09/15 04:34:51;;;;;;;50.80;32.55;;;20.00;99.90;;;;;;5014781;28;20478;-80
2021/09/15 04:37:17;;;;;;;53.63;34.83;;;19.90;99.90;;;;;;5014762;28;20049;-80
2021/09/15 04:39:43;;;;;;;44.25;31.17;;;19.90;99.90;;;;;;5014520;28;20559;-80
2021/09/15 04:42:08;;;;;;;45.33;32.97;;;19.80;99.90;;;;;;5014482;28;20125;-80
2021/09/15 04:44:34;;;;;;;50.08;34.42;;;19.70;99.90;;;;;;5014436;28;20487;-79
2021/09/15 04:47:00;;;;;;;51.35;33.53;;;19.70;99.90;;;;;;4997061;28;20053;-80
2021/09/15 04:49:26;;;;;;;51.28;35.03;;;19.70;99.90;;;;;;5014263;28;20026;-80
2021/09/15 04:51:52;;;;;;;53.30;37.38;;;19.60;99.90;;;;;;5014275;28;20109;-80
2021/09/15 04:54:17;;;;;;;65.07;38.42;;;19.60;99.90;;;;;;5014727;28;20021;-80
2021/09/15 04:56:43;;;;;;;51.28;33.42;;;19.60;99.90;;;;;;5014391;28;20028;-80
2021/09/15 04:59:09;;;;;;;44.80;33.30;;;19.70;99.90;;;;;;5014072;28;20394;-80
2021/09/15 05:01:34;;;;;;;57.90;36.75;;;19.90;99.90;;;;;;5014129;28;20105;-80
2021/09/15 05:04:00;;;;;;;53.80;36.78;;;19.90;99.90;;;;;;5014091;28;20054;-80
2021/09/15 05:06:26;;;;;;;54.05;34.95;;;19.80;99.90;;;;;;5013598;28;20069;-80
2021/09/15 05:08:52;;;;;;;59.33;37.45;;;19.80;99.90;;;;;;5014232;28;20069;-80
2021/09/15 05:11:18;;;;;;;53.83;35.53;;;19.70;99.90;;;;;;5014278;28;20022;-80
2021/09/15 05:13:43;;;;;;;49.83;34.47;;;19.60;99.90;;;;;;5013995;28;20029;-80
2021/09/15 05:16:09;;;;;;;47.63;33.75;;;19.50;99.90;;;;;;5014165;28;20022;-80
2021/09/15 05:18:35;;;;;;;52.25;35.33;;;19.70;99.90;;;;;;5013864;28;20097;-80
2021/09/15 05:21:01;;;;;;;50.30;34.92;;;19.70;99.90;;;;;;5013832;28;20033;-80
2021/09/15 05:23:26;;;;;;;53.55;35.00;;;19.70;99.90;;;;;;5013961;28;20161;-80
2021/09/15 05:25:52;;;;;;;47.88;33.15;;;19.60;99.90;;;;;;5013649;28;20026;-80
2021/09/15 05:28:18;;;;;;;47.30;32.08;;;19.60;99.90;;;;;;5013700;28;20115;-80
2021/09/15 05:30:44;;;;;;;42.83;28.92;;;19.60;99.90;;;;;;5013582;28;20104;-80
2021/09/15 05:33:12;;;;;;;44.45;31.77;;;19.70;99.90;;;;;;4996044;28;20057;-80
2021/09/15 05:35:37;;;;;;;43.25;30.35;;;19.70;99.90;;;;;;4995948;28;20483;-80
2021/09/15 05:38:04;;;;;;;45.67;31.25;;;19.60;99.90;;;;;;5013587;28;20037;-80
2021/09/15 05:40:29;;;;;;;42.83;28.15;;;19.60;99.90;;;;;;4995048;28;20080;-80
2021/09/15 05:42:55;;;;;;;36.75;25.90;;;19.50;99.90;;;;;;5013783;28;20029;-80
2021/09/15 05:45:21;;;;;;;36.90;26.45;;;19.60;99.90;;;;;;4995897;28;20034;-80
2021/09/15 05:47:46;;;;;;;36.40;26.08;;;19.60;99.90;;;;;;5013500;28;20433;-80
2021/09/15 05:50:12;;;;;;;35.40;24.73;;;19.60;99.90;;;;;;5013379;28;20371;-80
2021/09/15 05:52:38;;;;;;;35.38;25.30;;;19.60;99.90;;;;;;5013403;28;20093;-82
2021/09/15 05:55:06;;;;;;;36.70;25.65;;;19.50;99.90;;;;;;5013337;28;20034;-79
2021/09/15 05:57:33;;;;;;;38.70;25.98;;;19.60;99.90;;;;;;5013425;28;20036;-79
2021/09/15 05:59:58;;;;;;;41.05;27.65;;;19.50;99.90;;;;;;4995688;28;20026;-79
2021/09/15 06:02:24;;;;;;;33.40;23.50;;;19.40;99.90;;;;;;4995651;28;20029;-82
2021/09/15 06:04:50;;;;;;;34.15;22.05;;;19.50;99.90;;;;;;5013314;28;20068;-82
2021/09/15 06:07:16;;;;;;;40.05;25.85;;;19.60;99.90;;;;;;5013114;28;20446;-82
2021/09/15 06:09:41;;;;;;;34.80;24.20;;;19.50;99.90;;;;;;5013160;28;20072;-82
2021/09/15 06:12:07;;;;;;;32.45;21.67;;;19.50;99.90;;;;;;5013264;28;20478;-82
2021/09/15 06:14:33;;;;;;;30.35;22.10;;;19.60;99.90;;;;;;5013259;28;20108;-82
2021/09/15 06:16:59;;;;;;;29.15;19.50;;;19.60;99.90;;;;;;4995698;28;20021;-82
2021/09/15 06:19:25;;;;;;;28.48;20.58;;;19.50;99.90;;;;;;5013430;28;20030;-82
2021/09/15 06:21:51;;;;;;;30.75;22.13;;;19.70;99.90;;;;;;5013311;28;20101;-82
2021/09/15 06:24:16;;;;;;;26.42;19.35;;;19.60;99.90;;;;;;5013149;28;20037;-81
2021/09/15 06:26:42;;;;;;;30.08;21.40;;;19.60;99.90;;;;;;5013012;28;20512;-82
2021/09/15 06:29:08;;;;;;;30.13;21.73;;;19.60;99.90;;;;;;5013198;28;20436;-82
2021/09/15 06:31:35;;;;;;;33.78;23.45;;;19.50;99.90;;;;;;5013069;28;20026;-82
2021/09/15 06:34:01;;;;;;;27.08;19.33;;;19.50;99.90;;;;;;4995638;28;20057;-82
2021/09/15 06:36:26;;;;;;;25.35;17.95;;;19.60;99.90;;;;;;5013071;28;20056;-82
2021/09/15 06:38:52;;;;;;;22.00;16.52;;;19.40;99.90;;;;;;5013605;28;20030;-82
2021/09/15 06:41:18;;;;;;;24.85;18.48;;;19.60;99.90;;;;;;5012966;28;20022;-82
2021/09/15 06:43:44;;;;;;;26.05;18.50;;;19.60;99.90;;;;;;5012977;28;20053;-82
2021/09/15 06:46:11;;;;;;;24.20;18.10;;;19.60;99.90;;;;;;4995417;28;20026;-82
2021/09/15 06:48:36;;;;;;;24.35;18.13;;;19.50;99.90;;;;;;5011540;28;20064;-82
2021/09/15 06:51:02;;;;;;;25.60;17.75;;;19.60;99.90;;;;;;5014397;28;20053;-82
2021/09/15 06:53:28;;;;;;;24.58;17.98;;;19.70;99.90;;;;;;5016521;28;20030;-82
2021/09/15 06:55:53;;;;;;;25.52;18.05;;;19.80;99.90;;;;;;5016573;28;20018;-82
2021/09/15 06:58:19;;;;;;;23.02;15.60;;;19.90;99.90;;;;;;5016414;28;20025;-82
2021/09/15 07:00:48;;;;;;;22.60;16.98;;;19.90;99.90;;;;;;5016845;28;20022;-82
2021/09/15 07:03:13;;;;;;;22.30;15.73;;;20.00;99.90;;;;;;4998440;28;20397;-82
2021/09/15 07:05:46;;;;;;;20.40;14.82;;;20.20;99.90;;;;;;5016302;28;20101;-81
2021/09/15 07:08:11;;;;;;;19.98;14.98;;;20.20;99.90;;;;;;5014788;28;20052;-82
2021/09/15 07:10:40;;;;;;;22.60;15.93;;;20.10;99.90;;;;;;4998508;28;20030;-82
2021/09/15 07:13:06;;;;;;;21.70;14.88;;;20.10;99.90;;;;;;5016507;28;20022;-82
2021/09/15 07:15:32;;;;;;;19.80;15.05;;;20.20;99.90;;;;;;5016193;28;20372;-82
2021/09/15 07:17:58;;;;;;;19.05;13.93;;;20.10;99.90;;;;;;5016110;28;20033;-82
2021/09/15 07:20:24;;;;;;;19.42;15.05;;;20.10;99.90;;;;;;5016107;28;20371;-81
2021/09/15 07:22:49;;;;;;;20.55;15.35;;;20.00;99.90;;;;;;5016022;28;20018;-81
2021/09/15 07:25:15;;;;;;;22.17;15.68;;;20.10;99.90;;;;;;5015923;28;20025;-81
2021/09/15 07:27:41;;;;;;;21.42;15.05;;;20.30;99.90;;;;;;5015973;28;20429;-82
2021/09/15 07:30:09;;;;;;;19.75;14.48;;;20.40;99.90;;;;;;5015830;28;20033;-81
2021/09/15 07:32:34;;;;;;;22.55;16.10;;;20.40;99.90;;;;;;4998216;28;20026;-82
2021/09/15 07:35:00;;;;;;;19.67;14.55;;;20.20;99.90;;;;;;4998126;28;20026;-79
2021/09/15 07:37:26;;;;;;;21.00;15.43;;;20.10;99.90;;;;;;5015732;28;20014;-79
2021/09/15 07:39:55;;;;;;;23.40;16.90;;;20.10;99.90;;;;;;4998086;28;20030;-79
2021/09/15 07:42:21;;;;;;;20.05;15.40;;;20.00;99.90;;;;;;4997982;28;20026;-79
2021/09/15 07:44:47;;;;;;;23.55;16.50;;;20.00;99.90;;;;;;5015521;28;20037;-79
2021/09/15 07:47:15;;;;;;;22.67;16.20;;;20.20;99.90;;;;;;5015551;28;20033;-79
2021/09/15 07:49:43;;;;;;;23.25;14.43;;;20.50;99.90;;;;;;4997823;28;20033;-79
2021/09/15 07:52:09;;;;;;;23.83;15.07;;;21.00;99.90;;;;;;4997900;28;20025;-80
2021/09/15 07:54:35;;;;;;;23.55;14.68;;;21.30;99.90;;;;;;4997857;28;20072;-79
2021/09/15 07:57:01;;;;;;;18.27;13.18;;;21.80;99.90;;;;;;4997818;28;20104;-80
2021/09/15 07:59:27;;;;;;;20.10;12.90;;;21.70;99.90;;;;;;5015246;28;20030;-79
2021/09/15 08:01:52;;;;;;;20.38;13.27;;;21.40;99.90;;;;;;5014716;28;20508;-79
2021/09/15 08:04:18;;;;;;;22.38;14.88;;;21.20;99.90;;;;;;5014986;28;20034;-79
2021/09/15 08:06:44;;;;;;;20.13;14.00;;;21.00;99.90;;;;;;5014994;28;20506;-79
2021/09/15 08:09:09;;;;;;;22.55;15.38;;;20.80;99.90;;;;;;5015334;28;20112;-79
2021/09/15 08:11:35;;;;;;;21.02;13.50;;;20.70;99.90;;;;;;5015073;28;20522;-79
2021/09/15 08:14:13;;;;;;;20.38;13.60;;;20.80;99.90;;;;;;4997464;28;20457;-79
2021/09/15 08:16:39;;;;;;;24.05;17.33;;;20.80;99.90;;;;;;5015467;28;20499;-79
2021/09/15 08:19:05;;;;;;;21.02;14.63;;;20.60;99.90;;;;;;5014854;28;20033;-79
2021/09/15 08:21:31;;;;;;;23.17;16.33;;;20.40;99.90;;;;;;5015438;28;20060;-79
2021/09/15 08:23:56;;;;;;;25.95;16.95;;;20.60;99.90;;;;;;5014766;28;20080;-80
2021/09/15 08:26:22;;;;;;;25.15;15.57;;;20.80;99.90;;;;;;5014734;28;20049;-80
2021/09/15 08:28:48;;;;;;;25.67;15.25;;;20.90;99.90;;;;;;5014718;28;20118;-79
2021/09/15 08:31:14;;;;;;;18.65;12.93;;;21.00;99.90;;;;;;4997086;28;20032;-78
2021/09/15 08:33:40;;;;;;;23.58;14.95;;;21.00;99.90;;;;;;4997068;28;20025;-79
2021/09/15 08:36:05;;;;;;;18.92;14.02;;;20.90;99.90;;;;;;5014585;28;20022;-79
2021/09/15 08:38:31;;;;;;;26.10;15.55;;;20.80;99.90;;;;;;5014580;28;20110;-80
2021/09/15 08:40:58;;;;;;;24.00;15.10;;;20.80;99.90;;;;;;5014509;28;20030;-79
2021/09/15 08:43:23;;;;;;;31.60;17.33;;;20.80;99.90;;;;;;5014444;28;20033;-79
2021/09/15 08:45:49;;;;;;;20.67;14.82;;;21.00;99.90;;;;;;5014433;28;20026;-79
2021/09/15 08:48:21;;;;;;;29.70;16.70;;;21.10;99.90;;;;;;5014455;28;20414;-79
2021/09/15 08:50:49;;;;;;;25.58;13.50;;;21.00;99.90;;;;;;4996218;28;20401;-79
2021/09/15 08:53:16;;;;;;;25.33;13.50;;;21.00;99.90;;;;;;5014300;28;20026;-80
2021/09/15 08:55:46;;;;;;;20.65;14.70;;;21.00;99.90;;;;;;5014336;28;20106;-79
2021/09/15 08:58:13;;;;;;;19.85;13.63;;;20.90;99.90;;;;;;5014217;28;20033;-82
2021/09/15 09:00:39;;;;;;;20.77;12.75;;;20.70;99.90;;;;;;5014632;28;20084;-82
2021/09/15 09:03:04;;;;;;;19.13;13.05;;;20.70;99.90;;;;;;5014425;28;20451;-82
2021/09/15 09:05:31;;;;;;;19.70;12.07;;;20.50;99.90;;;;;;5014333;28;20029;-82
2021/09/15 09:07:57;;;;;;;20.25;12.70;;;20.60;99.90;;;;;;5013707;28;20053;-82
2021/09/15 09:10:22;;;;;;;17.42;11.32;;;20.90;99.90;;;;;;5014241;28;20022;-82
2021/09/15 09:12:48;;;;;;;20.25;11.88;;;21.30;99.90;;;;;;5013992;28;20450;-82
2021/09/15 09:15:28;;;;;;;17.98;10.25;;;21.40;99.90;;;;;;5013750;28;20018;-82
2021/09/15 09:17:58;;;;;;;16.35;9.23;;;21.40;99.90;;;;;;5014020;28;20375;-82
2021/09/15 09:20:31;;;;;;;16.70;9.40;;;21.70;99.90;;;;;;5013904;28;20053;-82
2021/09/15 09:23:14;;;;;;;15.43;9.23;;;21.90;99.90;;;;;;5014220;28;20026;-82
2021/09/15 09:25:40;;;;;;;14.23;8.75;;;21.60;99.90;;;;;;5013820;28;20030;-82
2021/09/15 09:28:45;;;;;;;16.67;10.02;;;21.80;99.90;;;;;;5013833;28;20030;-82
2021/09/15 09:31:12;;;;;;;21.60;9.80;;;21.70;99.90;;;;;;4996632;28;20050;-82
2021/09/15 09:33:38;;;;;;;16.52;9.10;;;21.60;99.90;;;;;;5013818;28;20509;-82
2021/09/15 09:36:09;;;;;;;15.65;9.70;;;21.60;99.90;;;;;;4996023;28;20038;-82
2021/09/15 09:38:45;;;;;;;17.10;9.80;;;21.60;99.90;;;;;;4995719;28;20032;-82
2021/09/15 09:41:15;;;;;;;;;;;21.20;99.90;;;;;;5014282;28;20483;-82
2021/09/15 09:43:46;;;;;;;13.18;8.38;;;21.00;99.90;;;;;;5013608;28;19913;-82
2021/09/15 09:46:15;;;;;;;15.18;8.90;;;21.10;99.90;;;;;;5013523;28;20029;-80
2021/09/15 09:48:43;;;;;;;13.27;8.50;;;21.10;99.90;;;;;;5013428;28;20545;-79
2021/09/15 09:51:24;;;;;;;13.70;7.68;;;21.10;99.90;;;;;;5013617;28;20018;-79
2021/09/15 09:54:11;;;;;;;13.13;7.70;;;21.10;99.90;;;;;;5013463;28;20065;-80
2021/09/15 09:56:42;;;;;;;15.32;9.15;;;21.10;99.90;;;;;;4995709;28;20022;-79
2021/09/15 09:59:08;;;;;;;16.35;8.75;;;21.00;99.90;;;;;;5013545;28;20419;-80
2021/09/15 10:01:42;;;;;;;16.80;8.90;;;20.90;99.90;;;;;;5013359;28;20111;-79
2021/09/15 10:04:09;;;;;;;16.05;8.45;;;20.90;99.90;;;;;;5013404;28;20501;-80
2021/09/15 10:06:39;;;;;;;14.43;8.43;;;21.00;99.90;;;;;;5013338;28;20076;-80
2021/09/15 10:09:06;;;;;;;13.43;8.20;;;21.10;99.90;;;;;;5013202;28;20479;-79
2021/09/15 10:11:33;;;;;;;15.27;7.70;;;21.10;99.90;;;;;;5013255;28;20457;-79
2021/09/15 10:14:01;;;;;;;14.55;7.68;;;21.10;99.90;;;;;;5013249;28;20031;-79
2021/09/15 10:16:27;;;;;;;15.90;7.18;;;21.10;99.90;;;;;;4995562;28;20049;-80
2021/09/15 10:19:01;;;;;;;19.77;7.53;;;21.20;99.90;;;;;;5013184;28;20026;-79
2021/09/15 10:21:30;;;;;;;15.85;6.90;;;21.30;99.90;;;;;;5013290;28;20360;-80
2021/09/15 10:23:56;;;;;;;13.38;7.07;;;21.30;99.90;;;;;;5013095;28;20364;-79
2021/09/15 10:26:32;;;;;;;13.77;7.07;;;21.40;99.90;;;;;;5014918;28;20022;-79
2021/09/15 10:29:16;;;;;;;15.45;7.32;;;21.40;99.90;;;;;;5017276;28;20022;-80
2021/09/15 10:31:49;;;;;;;11.00;6.40;;;21.40;99.90;;;;;;5016950;28;20105;-79
2021/09/15 10:34:37;;;;;;;15.15;7.05;;;21.40;99.90;;;;;;5016876;28;20022;-79
2021/09/15 10:37:12;;;;;;;11.48;6.68;;;21.50;99.90;;;;;;5017108;28;20033;-79
2021/09/15 10:40:02;;;;;;;12.07;6.65;;;21.50;99.90;;;;;;4998994;28;20033;-80
2021/09/15 10:45:25;;;;;;;12.30;6.53;;;21.40;99.90;;;;;;5016747;28;20449;-80
2021/09/15 10:48:13;;;;;;;14.80;6.82;;;21.50;99.90;;;;;;5016688;28;20061;-79
2021/09/15 10:50:40;;;;;;;13.65;6.50;;;21.30;99.90;;;;;;5016634;28;20025;-79
2021/09/15 10:53:12;;;;;;;14.38;7.18;;;21.40;99.90;;;;;;4998930;28;20036;-79
2021/09/15 10:55:49;;;;;;;13.73;7.25;;;21.20;99.90;;;;;;4998853;28;20026;-79
2021/09/15 10:58:19;;;;;;;14.35;6.78;;;21.10;99.90;;;;;;4998607;28;20026;-79
2021/09/15 11:00:48;;;;;;;12.38;6.60;;;21.30;99.90;;;;;;4998783;28;20026;-79
2021/09/15 11:03:34;;;;;;;14.57;6.43;;;21.30;99.90;;;;;;5016361;28;20048;-79
2021/09/15 11:06:06;;;;;;;15.80;6.55;;;21.70;99.90;;;;;;5016080;28;20104;-79
2021/09/15 11:08:38;;;;;;;14.20;6.53;;;22.00;99.90;;;;;;4998471;28;20038;-79
2021/09/15 11:11:27;;;;;;;14.00;6.10;;;22.30;99.90;;;;;;5016194;28;20026;-80
2021/09/15 11:13:56;;;;;;;11.52;6.85;;;22.70;99.90;;;;;;4979546;28;20168;-80
2021/09/15 11:16:31;;;;;;;11.73;7.18;;;22.80;99.90;;;;;;4998506;28;20375;-80
2021/09/15 11:19:07;;;;;;;14.68;6.93;;;22.80;99.90;;;;;;4998461;28;20065;-79
2021/09/15 11:21:38;;;;;;;12.30;6.22;;;22.90;99.90;;;;;;5016120;28;20442;-79
2021/09/15 11:24:12;;;;;;;15.10;6.40;;;23.20;99.90;;;;;;5016040;28;20049;-80
2021/09/15 11:26:47;;;;;;;11.55;6.63;;;23.50;99.90;;;;;;4998287;28;20042;-80
2021/09/15 11:29:34;;;;;;;12.80;6.90;;;23.70;99.90;;;;;;5015848;28;20495;-80
2021/09/15 11:32:00;;;;;;;12.30;6.60;;;23.50;99.90;;;;;;4997998;28;20439;-80
2021/09/15 11:34:26;;;;;;;12.23;6.85;;;23.30;99.90;;;;;;5015811;28;20102;-80
2021/09/15 11:36:52;;;;;;;13.35;6.85;;;23.40;99.90;;;;;;5015949;28;20050;-80
2021/09/15 11:39:24;;;;;;;12.32;6.85;;;23.70;99.90;;;;;;5015869;28;20065;-80
2021/09/15 11:41:50;;;;;;;15.75;5.78;;;23.70;99.90;;;;;;5015811;28;20026;-80
2021/09/15 11:44:16;;;;;;;12.35;6.18;;;23.70;99.90;;;;;;5015664;28;20529;-80
2021/09/15 11:46:42;;;;;;;11.85;5.85;;;24.20;99.90;;;;;;5015544;28;20026;-80
2021/09/15 11:49:07;;;;;;;11.95;6.05;;;24.40;99.90;;;;;;5015545;28;20156;-80
2021/09/15 11:51:37;;;;;;;13.52;5.57;;;24.80;99.90;;;;;;5015482;28;20372;-80
2021/09/15 11:58:59;;;;;;;11.68;5.60;;;25.80;99.90;;;;;;5015279;28;20427;-80
2021/09/15 12:01:27;;;;;;;12.88;5.70;;;26.30;99.90;;;;;;5015277;28;20049;-80
2021/09/15 12:03:55;;;;;;;11.85;5.22;;;27.70;99.90;;;;;;4997673;28;20033;-81
2021/09/15 12:06:21;;;;;;;11.63;5.05;;;28.60;99.20;;;;;;5014962;28;20034;-81
2021/09/15 12:08:48;;;;;;;17.80;4.82;;;33.20;94.10;;;;;;5015301;28;20026;-82
2021/09/15 12:11:15;;;;;;;10.50;4.63;;;35.80;78.80;;;;;;4997738;28;20049;-82
2021/09/15 12:13:41;;;;;;;11.68;4.45;;;33.90;77.60;;;;;;5015043;28;20068;-81
2021/09/15 12:16:07;;;;;;;10.38;4.63;;;30.90;82.10;;;;;;4997348;28;20541;-80
2021/09/15 12:18:44;;;;;;;9.48;4.50;;;28.90;90.80;;;;;;5014923;28;20034;-80
2021/09/15 12:21:18;;;;;;;11.65;4.60;;;27.90;93.50;;;;;;5015198;28;20018;-80
2021/09/15 12:23:44;;;;;;;12.07;4.85;;;27.40;94.20;;;;;;4997301;28;20049;-80
2021/09/15 12:26:11;;;;;;;9.40;5.07;;;26.90;95.10;;;;;;4997177;28;20022;-80
2021/09/15 12:28:37;;;;;;;12.18;5.28;;;26.50;96.20;;;;;;4997203;28;20084;-80
2021/09/15 12:31:04;;;;;;;11.07;5.47;;;25.80;97.30;;;;;;4997067;28;20032;-80
2021/09/15 12:33:40;;;;;;;12.07;5.70;;;25.60;98.10;;;;;;4997150;28;20108;-80
2021/09/15 12:36:16;;;;;;;13.52;5.72;;;25.60;98.30;;;;;;5014761;28;20018;-80
2021/09/15 12:38:51;;;;;;;10.10;5.50;;;25.90;98.80;;;;;;4996782;28;20026;-80
2021/09/15 12:41:18;;;;;;;12.48;5.07;;;26.30;97.20;;;;;;4996967;28;20018;-80
2021/09/15 12:43:44;;;;;;;11.38;5.10;;;27.10;96.50;;;;;;5014591;28;20025;-80
2021/09/15 12:46:28;;;;;;;9.93;5.05;;;27.60;95.20;;;;;;5014495;28;20029;-80
2021/09/15 12:48:55;;;;;;;12.20;4.95;;;29.60;93.30;;;;;;5014161;28;20386;-81